createdAt,value
2023-05-04T00:00:20.170Z,95009.16
2023-05-04T00:02:47.202Z,95009.97
2023-05-04T00:05:14.102Z,95004.63
2023-05-04T00:07:41.040Z,94992.53
2023-05-04T00:10:08.458Z,94985.63
2023-05-04T00:12:35.790Z,94977.91
2023-05-04T00:15:02.853Z,94976.56
2023-05-04T00:17:29.783Z,94992.63
2023-05-04T00:19:56.826Z,94993.03
2023-05-04T00:22:23.670Z,94994.69
2023-05-04T00:24:50.526Z,94988.34
2023-05-04T00:27:17.372Z,94979.53
2023-05-04T00:29:44.260Z,94988.06
2023-05-04T00:32:11.261Z,94974.03
2023-05-04T00:34:38.084Z,94989.84
2023-05-04T00:37:04.973Z,94971.41
2023-05-04T00:39:31.866Z,94961.91
2023-05-04T00:41:58.703Z,94977.00
2023-05-04T00:44:25.554Z,94974.25
2023-05-04T00:46:53.337Z,94971.63
2023-05-04T00:49:21.840Z,94981.59
2023-05-04T00:51:50.549Z,94982.13
2023-05-04T00:54:20.755Z,94978.81
2023-05-04T00:56:48.279Z,94983.75
2023-05-04T00:59:15.160Z,94985.13
2023-05-04T01:01:42.544Z,94987.06
2023-05-04T01:04:09.913Z,94973.00
2023-05-04T01:06:50.979Z,94987.59
2023-05-04T01:09:47.542Z,94991.19
2023-05-04T01:12:41.846Z,94987.00
2023-05-04T01:15:13.187Z,94984.94
2023-05-04T01:17:40.437Z,94984.66
2023-05-04T01:20:09.652Z,94977.38
2023-05-04T01:22:39.603Z,94970.97
2023-05-04T01:25:08.054Z,94958.91
2023-05-04T01:28:10.734Z,94984.41
2023-05-04T01:30:44.835Z,94975.66
2023-05-04T01:33:12.928Z,94980.03
2023-05-04T01:35:40.221Z,94986.59
2023-05-04T01:38:07.156Z,94981.56
2023-05-04T01:40:34.298Z,94974.97
2023-05-04T01:43:01.394Z,94970.00
2023-05-04T01:45:28.232Z,94969.50
2023-05-04T01:47:55.228Z,94972.16
2023-05-04T01:50:22.191Z,94973.69
2023-05-04T01:52:49.056Z,94974.97
2023-05-04T01:55:16.020Z,94978.03
2023-05-04T01:57:42.889Z,94956.13
2023-05-04T02:00:10.542Z,94972.59
2023-05-04T02:02:37.424Z,94979.88
2023-05-04T02:05:04.633Z,94977.63
2023-05-04T02:07:31.535Z,94960.47
2023-05-04T02:09:58.380Z,94966.97
2023-05-04T02:12:25.485Z,94965.78
2023-05-04T02:14:52.295Z,94968.47
2023-05-04T02:17:19.146Z,94955.63
2023-05-04T02:19:45.987Z,94949.78
2023-05-04T02:22:12.810Z,94960.13
2023-05-04T02:24:40.999Z,94965.03
2023-05-04T02:27:07.824Z,94962.97
2023-05-04T02:29:34.633Z,94959.47
2023-05-04T02:32:01.556Z,94954.63
2023-05-04T02:34:28.455Z,94957.44
2023-05-04T02:36:55.302Z,94959.44
2023-05-04T02:39:22.452Z,94957.75
2023-05-04T02:41:49.348Z,94960.75
2023-05-04T02:44:16.210Z,94929.63
2023-05-04T02:46:43.088Z,94939.56
2023-05-04T02:49:09.910Z,94962.03
2023-05-04T02:51:36.802Z,94948.06
2023-05-04T02:54:03.800Z,94954.56
2023-05-04T02:56:30.695Z,94950.91
2023-05-04T02:58:57.538Z,94951.25
2023-05-04T03:01:24.442Z,94949.28
2023-05-04T03:03:51.390Z,94949.53
2023-05-04T03:06:18.252Z,94960.03
2023-05-04T03:08:45.099Z,94951.88
2023-05-04T03:11:11.943Z,94950.03
2023-05-04T03:13:38.757Z,94963.88
2023-05-04T03:16:05.964Z,94958.06
2023-05-04T03:18:38.570Z,94954.53
2023-05-04T03:21:05.626Z,94941.53
2023-05-04T03:23:32.489Z,94953.38
2023-05-04T03:25:59.320Z,94944.16
2023-05-04T03:28:26.160Z,94948.38
2023-05-04T03:30:53.036Z,94951.75
2023-05-04T03:33:19.872Z,94943.44
2023-05-04T03:35:46.694Z,94955.03
2023-05-04T03:38:13.724Z,94945.94
2023-05-04T03:40:40.545Z,94951.72
2023-05-04T03:43:07.489Z,94951.22
2023-05-04T03:45:34.587Z,94951.47
2023-05-04T03:48:01.428Z,94935.63
2023-05-04T03:50:28.326Z,94942.75
2023-05-04T03:52:55.225Z,94940.84
2023-05-04T03:55:22.160Z,94937.13
2023-05-04T03:57:48.974Z,94937.59
2023-05-04T04:00:16.798Z,94940.41
2023-05-04T04:02:43.769Z,94953.91
2023-05-04T04:05:10.750Z,94947.53
2023-05-04T04:07:37.585Z,94950.63
2023-05-04T04:10:05.154Z,94954.53
2023-05-04T04:12:32.310Z,94945.78
2023-05-04T04:14:59.264Z,94942.38
2023-05-04T04:17:26.151Z,94947.69
2023-05-04T04:19:53.040Z,94947.31
2023-05-04T04:22:19.862Z,94946.59
2023-05-04T04:24:46.712Z,94950.13
2023-05-04T04:27:13.777Z,94934.88
2023-05-04T04:29:40.631Z,94935.38
2023-05-04T04:32:07.451Z,94929.69
2023-05-04T04:34:34.508Z,94936.44
2023-05-04T04:37:01.333Z,94942.81
2023-05-04T04:39:28.205Z,94933.09
2023-05-04T04:41:55.107Z,94939.88
2023-05-04T04:44:22.034Z,94950.13
2023-05-04T04:46:49.496Z,94950.72
2023-05-04T04:49:18.061Z,94944.34
2023-05-04T04:51:45.018Z,94939.25
2023-05-04T04:54:11.939Z,94938.06
2023-05-04T04:56:41.946Z,94957.22
2023-05-04T04:59:08.783Z,94952.72
2023-05-04T05:01:35.665Z,94945.63
2023-05-04T05:04:02.516Z,94932.84
2023-05-04T05:06:29.395Z,94932.69
2023-05-04T05:08:56.727Z,94934.34
2023-05-04T05:11:23.614Z,94931.34
2023-05-04T05:13:50.780Z,94925.91
2023-05-04T05:16:17.716Z,94913.28
2023-05-04T05:18:44.655Z,94928.41
2023-05-04T05:21:11.605Z,94928.16
2023-05-04T05:23:38.454Z,94920.94
2023-05-04T05:26:05.350Z,94919.63
2023-05-04T05:28:32.452Z,94924.69
2023-05-04T05:30:59.431Z,94929.13
2023-05-04T05:33:26.358Z,94927.00
2023-05-04T05:35:53.210Z,94923.78
2023-05-04T05:38:20.354Z,94929.56
2023-05-04T05:40:48.881Z,94926.31
2023-05-04T05:43:15.911Z,94921.63
2023-05-04T05:45:42.810Z,94915.19
2023-05-04T05:48:09.676Z,94919.50
2023-05-04T05:50:36.517Z,94921.47
2023-05-04T05:53:03.443Z,94920.84
2023-05-04T05:55:30.279Z,94917.34
2023-05-04T05:57:57.157Z,94920.69
2023-05-04T06:00:24.876Z,94912.75
2023-05-04T06:02:52.783Z,94908.56
2023-05-04T06:05:19.770Z,94921.22
2023-05-04T06:07:46.718Z,94912.28
2023-05-04T06:10:13.948Z,94901.19
2023-05-04T06:12:40.909Z,94909.25
2023-05-04T06:15:09.501Z,94916.97
2023-05-04T06:17:36.496Z,94913.97
2023-05-04T06:20:03.869Z,94929.50
2023-05-04T06:22:31.681Z,94923.31
2023-05-04T06:25:02.724Z,94913.50
2023-05-04T06:27:31.961Z,94906.59
2023-05-04T06:29:58.915Z,94900.44
2023-05-04T06:32:25.994Z,94901.75
2023-05-04T06:34:55.636Z,94899.47
2023-05-04T06:37:22.731Z,94893.41
2023-05-04T06:39:49.612Z,94900.72
2023-05-04T06:42:16.510Z,94889.16
2023-05-04T06:44:43.535Z,94894.47
2023-05-04T06:47:10.502Z,94897.31
2023-05-04T06:49:37.363Z,94901.75
2023-05-04T06:52:04.395Z,94889.75
2023-05-04T06:54:32.094Z,94899.09
2023-05-04T06:56:58.987Z,94897.47
2023-05-04T06:59:25.863Z,94905.47
2023-05-04T07:01:52.798Z,94899.94
2023-05-04T07:04:23.554Z,94911.00
2023-05-04T07:06:51.219Z,94906.91
2023-05-04T07:09:21.341Z,94906.56
2023-05-04T07:11:51.229Z,94902.25
2023-05-04T07:14:18.083Z,94903.53
2023-05-04T07:16:45.037Z,94904.91
2023-05-04T07:19:12.055Z,94903.59
2023-05-04T07:21:39.008Z,94907.41
2023-05-04T07:24:07.223Z,94904.50
2023-05-04T07:26:34.140Z,94901.28
2023-05-04T07:29:01.193Z,94888.47
2023-05-04T07:31:30.190Z,94886.66
2023-05-04T07:33:57.669Z,94900.47
2023-05-04T07:36:26.766Z,94901.00
2023-05-04T07:38:54.682Z,94896.16
2023-05-04T07:41:21.700Z,94892.41
2023-05-04T07:43:48.564Z,94868.91
2023-05-04T07:46:15.599Z,94899.06
2023-05-04T07:48:42.442Z,94882.81
2023-05-04T07:51:14.432Z,94878.97
2023-05-04T07:53:42.668Z,94891.97
2023-05-04T07:56:13.727Z,94890.44
2023-05-04T07:58:41.577Z,94893.09
2023-05-04T08:01:08.642Z,94891.25
2023-05-04T08:03:35.598Z,94892.16
2023-05-04T08:06:02.699Z,94887.50
2023-05-04T08:08:29.727Z,94864.75
2023-05-04T08:11:07.968Z,94878.81
2023-05-04T08:13:46.511Z,94871.94
2023-05-04T08:16:13.453Z,94874.72
2023-05-04T08:18:40.367Z,94876.50
2023-05-04T08:21:07.247Z,94865.34
2023-05-04T08:23:34.148Z,94853.56
2023-05-04T08:26:05.035Z,94866.84
2023-05-04T08:28:39.708Z,94862.59
2023-05-04T08:31:06.842Z,94864.25
2023-05-04T08:33:34.637Z,94870.19
2023-05-04T08:36:03.041Z,94872.53
2023-05-04T08:38:30.247Z,94862.13
2023-05-04T08:40:57.797Z,94868.25
2023-05-04T08:43:24.794Z,94852.91
2023-05-04T08:45:51.792Z,94849.22
2023-05-04T08:48:19.125Z,94864.34
2023-05-04T08:50:46.316Z,94858.63
2023-05-04T08:53:14.625Z,94867.41
2023-05-04T08:55:43.573Z,94857.78
2023-05-04T08:58:14.622Z,94856.56
2023-05-04T09:00:44.187Z,94839.75
2023-05-04T09:03:12.243Z,94852.88
2023-05-04T09:05:41.702Z,94848.38
2023-05-04T09:08:08.753Z,94854.44
2023-05-04T09:10:35.647Z,94842.81
2023-05-04T09:13:02.716Z,94855.44
2023-05-04T09:15:29.705Z,94843.72
2023-05-04T09:18:01.524Z,94846.88
2023-05-04T09:20:28.665Z,94851.84
2023-05-04T09:23:07.695Z,94845.53
2023-05-04T09:25:47.589Z,94852.66
2023-05-04T09:28:15.740Z,94849.69
2023-05-04T09:30:43.300Z,94850.44
2023-05-04T09:33:13.898Z,94854.81
2023-05-04T09:35:44.659Z,94855.00
2023-05-04T09:38:11.536Z,94853.13
2023-05-04T09:40:41.689Z,94854.81
2023-05-04T09:43:09.613Z,94851.59
2023-05-04T09:45:44.728Z,94851.53
2023-05-04T09:48:25.673Z,94852.28
2023-05-04T09:50:54.744Z,94847.28
2023-05-04T09:53:29.689Z,94854.69
2023-05-04T09:56:02.178Z,94863.63
2023-05-04T09:58:31.648Z,94853.78
2023-05-04T10:01:01.585Z,94850.50
2023-05-04T10:03:29.365Z,94848.47
2023-05-04T10:06:00.041Z,94839.97
2023-05-04T10:08:29.107Z,94831.63
2023-05-04T10:10:57.225Z,94853.41
2023-05-04T10:13:25.336Z,94843.59
2023-05-04T10:16:01.477Z,94838.63
2023-05-04T10:19:20.916Z,94845.28
2023-05-04T10:22:33.683Z,94842.06
2023-05-04T10:25:36.548Z,94844.81
2023-05-04T10:28:25.594Z,94836.34
2023-05-04T10:30:59.107Z,94837.59
2023-05-04T10:33:26.975Z,94838.75
2023-05-04T10:35:56.707Z,94834.28
2023-05-04T10:38:37.183Z,94835.94
2023-05-04T10:41:18.607Z,94838.91
2023-05-04T10:43:51.120Z,94825.41
2023-05-04T10:46:22.075Z,94825.28
2023-05-04T10:48:50.412Z,94826.81
2023-05-04T10:51:22.861Z,94810.53
2023-05-04T10:53:50.934Z,94806.59
2023-05-04T10:56:28.534Z,94802.22
2023-05-04T10:58:55.896Z,94805.47
2023-05-04T11:01:23.176Z,94808.72
2023-05-04T11:03:51.931Z,94795.97
2023-05-04T11:06:24.042Z,94791.03
2023-05-04T11:09:06.534Z,94791.59
2023-05-04T11:11:37.763Z,94799.75
2023-05-04T11:14:04.694Z,94790.78
2023-05-04T11:16:31.732Z,94787.53
2023-05-04T11:19:09.776Z,94795.22
2023-05-04T11:21:38.952Z,94788.09
2023-05-04T11:24:06.239Z,94774.91
2023-05-04T11:26:33.523Z,94789.63
2023-05-04T11:29:00.475Z,94789.00
2023-05-04T11:31:27.403Z,94789.47
2023-05-04T11:33:55.268Z,94778.31
2023-05-04T11:36:22.904Z,94774.03
2023-05-04T11:38:50.342Z,94777.28
2023-05-04T11:41:17.377Z,94763.78
2023-05-04T11:43:45.490Z,94763.03
2023-05-04T11:46:13.366Z,94758.28
2023-05-04T11:48:41.133Z,94762.94
2023-05-04T11:51:08.093Z,94762.94
2023-05-04T11:53:39.633Z,94758.78
2023-05-04T11:56:11.297Z,94769.69
2023-05-04T11:58:38.209Z,94761.75
2023-05-04T12:01:05.497Z,94748.03
2023-05-04T12:06:04.893Z,94749.13
2023-05-04T12:08:42.194Z,94760.53
2023-05-04T12:11:21.903Z,94752.13
2023-05-04T12:13:50.035Z,94738.78
2023-05-04T12:16:19.604Z,94763.19
2023-05-04T12:18:48.235Z,94754.34
2023-05-04T12:21:19.708Z,94765.06
2023-05-04T12:23:47.655Z,94736.34
2023-05-04T12:26:18.821Z,94759.94
2023-05-04T12:28:47.982Z,94748.50
2023-05-04T12:31:15.134Z,94744.94
2023-05-04T12:33:41.972Z,94743.47
2023-05-04T12:36:10.409Z,94730.19
2023-05-04T12:38:40.578Z,94736.09
2023-05-04T12:41:11.022Z,94731.44
2023-05-04T12:43:38.613Z,94720.03
2023-05-04T12:46:05.653Z,94706.63
2023-05-04T12:48:33.183Z,94704.63
2023-05-04T12:51:01.468Z,94700.38
2023-05-04T12:53:32.089Z,94732.41
2023-05-04T12:56:00.848Z,94713.16
2023-05-04T12:58:28.502Z,94721.41
2023-05-04T13:00:56.760Z,94718.72
2023-05-04T13:03:24.321Z,94700.13
2023-05-04T13:05:51.441Z,94687.63
2023-05-04T13:08:19.973Z,94700.72
2023-05-04T13:10:47.416Z,94697.53
2023-05-04T13:13:17.339Z,94676.59
2023-05-04T13:15:44.967Z,94692.34
2023-05-04T13:18:13.061Z,94696.91
2023-05-04T13:20:40.768Z,94697.75
2023-05-04T13:23:07.727Z,94681.44
2023-05-04T13:25:34.603Z,94687.47
2023-05-04T13:28:01.545Z,94669.63
2023-05-04T13:30:29.193Z,94678.34
2023-05-04T13:32:56.201Z,94670.59
2023-05-04T13:35:24.078Z,94667.31
2023-05-04T13:37:51.682Z,94675.19
2023-05-04T13:40:18.748Z,94669.28
2023-05-04T13:42:45.719Z,94670.88
2023-05-04T13:45:13.378Z,94659.53
2023-05-04T13:47:40.854Z,94655.22
2023-05-04T13:50:08.454Z,94642.84
2023-05-04T13:52:36.349Z,94663.91
2023-05-04T13:55:03.633Z,94654.19
2023-05-04T13:57:30.969Z,94643.38
2023-05-04T14:00:07.066Z,94638.50
2023-05-04T14:02:35.336Z,94648.22
2023-05-04T14:05:04.477Z,94626.59
2023-05-04T14:07:31.767Z,94638.44
2023-05-04T14:10:01.940Z,94644.94
2023-05-04T14:12:29.101Z,94629.50
2023-05-04T14:14:56.131Z,94628.19
2023-05-04T14:17:23.115Z,94623.25
2023-05-04T14:19:49.941Z,94610.25
2023-05-04T14:22:16.865Z,94607.25
2023-05-04T14:24:43.783Z,94596.16
2023-05-04T14:27:10.798Z,94590.50
2023-05-04T14:29:37.625Z,94598.03
2023-05-04T14:32:04.654Z,94587.97
2023-05-04T14:34:32.764Z,94599.63
2023-05-04T14:36:59.609Z,94600.19
2023-05-04T14:39:26.703Z,94584.94
2023-05-04T14:41:54.178Z,94593.41
2023-05-04T14:44:22.821Z,94586.31
2023-05-04T14:46:49.768Z,94590.13
2023-05-04T14:49:32.571Z,94585.03
2023-05-04T14:52:04.056Z,94580.13
2023-05-04T14:54:31.026Z,94566.34
2023-05-04T14:56:59.174Z,94577.50
2023-05-04T14:59:26.436Z,94583.53
2023-05-04T15:01:55.394Z,94565.72
2023-05-04T15:04:22.703Z,94558.66
2023-05-04T15:06:49.938Z,94559.72
2023-05-04T15:09:16.959Z,94534.00
2023-05-04T15:12:59.535Z,94573.94
2023-05-04T15:15:26.545Z,94562.56
2023-05-04T15:17:53.608Z,94566.78
2023-05-04T15:20:20.632Z,94544.06
2023-05-04T15:22:49.139Z,94552.97
2023-05-04T15:25:16.016Z,94555.88
2023-05-04T15:27:44.030Z,94555.88
2023-05-04T15:30:11.880Z,94548.69
2023-05-04T15:32:38.835Z,94576.53
2023-05-04T15:35:06.572Z,94559.88
2023-05-04T15:37:33.913Z,94551.06
2023-05-04T15:40:02.462Z,94557.44
2023-05-04T15:42:29.818Z,94554.81
2023-05-04T15:44:56.814Z,94561.31
2023-05-04T15:47:24.021Z,94574.03
2023-05-04T15:49:50.926Z,94566.75
2023-05-04T15:52:17.765Z,94573.44
2023-05-04T15:54:44.591Z,94578.06
2023-05-04T15:57:11.636Z,94555.88
2023-05-04T15:59:38.676Z,94533.69
2023-05-04T16:02:06.261Z,94554.19
2023-05-04T16:04:33.500Z,94547.47
2023-05-04T16:07:00.482Z,94524.25
2023-05-04T16:09:28.426Z,94524.78
2023-05-04T16:11:55.329Z,94536.38
2023-05-04T16:14:22.292Z,94536.09
2023-05-04T16:16:49.216Z,94550.63
2023-05-04T16:19:16.238Z,94522.22
2023-05-04T16:21:43.131Z,94516.50
2023-05-04T16:24:10.328Z,94548.59
2023-05-04T16:26:37.192Z,94506.22
2023-05-04T16:29:04.129Z,94540.22
2023-05-04T16:31:31.120Z,94543.25
2023-05-04T16:33:58.238Z,94541.66
2023-05-04T16:36:25.082Z,94555.63
2023-05-04T16:38:52.418Z,94558.94
2023-05-04T16:41:19.311Z,94536.59
2023-05-04T16:43:46.339Z,94539.22
2023-05-04T16:46:13.208Z,94538.50
2023-05-04T16:48:40.314Z,94526.69
2023-05-04T16:51:08.447Z,94488.25
2023-05-04T16:53:35.796Z,94505.16
2023-05-04T16:56:02.807Z,94544.47
2023-05-04T16:58:29.713Z,94520.09
2023-05-04T17:00:58.405Z,94511.19
2023-05-04T17:03:25.434Z,94491.47
2023-05-04T17:05:52.924Z,94525.63
2023-05-04T17:08:19.879Z,94512.00
2023-05-04T17:10:46.733Z,94549.66
2023-05-04T17:13:13.808Z,94514.31
2023-05-04T17:15:40.776Z,94480.13
2023-05-04T17:18:07.766Z,94520.59
2023-05-04T17:20:34.641Z,94526.50
2023-05-04T17:23:01.949Z,94486.53
2023-05-04T17:25:29.102Z,94512.78
2023-05-04T17:27:55.999Z,94516.78
2023-05-04T17:30:23.349Z,94519.47
2023-05-04T17:32:51.333Z,94497.22
2023-05-04T17:35:25.218Z,94493.97
2023-05-04T17:37:57.899Z,94500.91
2023-05-04T17:40:27.705Z,94523.22
2023-05-04T17:42:55.139Z,94496.56
2023-05-04T17:45:22.183Z,94540.00
2023-05-04T17:47:51.362Z,94558.25
2023-05-04T17:50:18.463Z,94537.94
2023-05-04T17:52:45.278Z,94547.03
2023-05-04T17:55:12.312Z,94557.59
2023-05-04T17:57:39.183Z,94557.28
2023-05-04T18:00:07.804Z,94555.63
2023-05-04T18:02:35.171Z,94523.66
2023-05-04T18:05:03.130Z,94538.13
2023-05-04T18:07:30.050Z,94558.06
2023-05-04T18:09:57.055Z,94503.97
2023-05-04T18:12:23.972Z,94522.81
2023-05-04T18:14:51.447Z,94565.09
2023-05-04T18:17:18.363Z,94594.72
2023-05-04T18:19:45.202Z,94540.59
2023-05-04T18:22:12.126Z,94557.72
2023-05-04T18:24:39.019Z,94588.31
2023-05-04T18:27:06.258Z,94571.50
2023-05-04T18:29:33.169Z,94555.16
2023-05-04T18:32:01.498Z,94581.44
2023-05-04T18:34:28.466Z,94563.91
2023-05-04T18:36:55.338Z,94585.88
2023-05-04T18:39:22.220Z,94629.47
2023-05-04T18:41:49.323Z,94571.66
2023-05-04T18:44:16.420Z,94589.78
2023-05-04T18:46:43.415Z,94611.28
2023-05-04T18:49:10.298Z,94588.06
2023-05-04T18:51:37.186Z,94625.44
2023-05-04T18:54:04.385Z,94649.50
2023-05-04T18:56:31.378Z,94598.94
2023-05-04T18:58:58.285Z,94627.44
2023-05-04T19:01:25.244Z,94624.72
2023-05-04T19:03:52.283Z,94619.19
2023-05-04T19:06:19.248Z,94612.44
2023-05-04T19:08:46.089Z,94571.53
2023-05-04T19:11:13.308Z,94638.13
2023-05-04T19:13:40.183Z,94654.84
2023-05-04T19:16:12.250Z,94673.53
2023-05-04T19:18:39.309Z,94671.41
2023-05-04T19:21:06.730Z,94654.38
2023-05-04T19:23:33.585Z,94654.13
2023-05-04T19:26:00.497Z,94678.69
2023-05-04T19:28:27.381Z,94659.94
2023-05-04T19:30:54.360Z,94673.09
2023-05-04T19:33:22.290Z,94676.81
2023-05-04T19:35:50.198Z,94685.53
2023-05-04T19:38:17.558Z,94691.38
2023-05-04T19:40:44.399Z,94679.13
2023-05-04T19:43:11.296Z,94685.06
2023-05-04T19:45:39.338Z,94677.53
2023-05-04T19:48:06.297Z,94701.63
2023-05-04T19:50:33.392Z,94692.63
2023-05-04T19:53:00.212Z,94696.53
2023-05-04T19:55:27.169Z,94706.53
2023-05-04T19:57:54.035Z,94701.41
2023-05-04T20:00:20.967Z,94712.84
2023-05-04T20:02:47.940Z,94707.34
2023-05-04T20:05:14.969Z,94704.03
2023-05-04T20:07:42.170Z,94704.00
2023-05-04T20:10:09.437Z,94701.25
2023-05-04T20:12:36.505Z,94704.31
2023-05-04T20:15:06.618Z,94701.41
2023-05-04T20:17:33.582Z,94690.13
2023-05-04T20:20:02.603Z,94695.53
2023-05-04T20:22:29.786Z,94692.63
2023-05-04T20:24:57.230Z,94686.69
2023-05-04T20:27:27.012Z,94695.06
2023-05-04T20:29:53.865Z,94688.88
2023-05-04T20:32:20.887Z,94689.69
2023-05-04T20:34:47.922Z,94707.25
2023-05-04T20:37:14.964Z,94695.31
2023-05-04T20:39:41.900Z,94707.91
2023-05-04T20:42:08.754Z,94691.59
2023-05-04T20:44:35.626Z,94701.63
2023-05-04T20:47:02.752Z,94697.47
2023-05-04T20:49:29.660Z,94671.66
2023-05-04T20:51:56.508Z,94678.00
2023-05-04T20:54:24.317Z,94688.81
2023-05-04T20:56:51.191Z,94698.03
2023-05-04T20:59:18.079Z,94700.47
2023-05-04T21:01:45.071Z,94677.31
2023-05-04T21:04:12.059Z,94690.38
2023-05-04T21:06:38.896Z,94700.88
2023-05-04T21:09:05.850Z,94695.34
2023-05-04T21:11:32.718Z,94694.22
2023-05-04T21:13:59.650Z,94681.38
2023-05-04T21:16:26.570Z,94692.53
2023-05-04T21:18:53.405Z,94690.31
2023-05-04T21:21:20.225Z,94695.13
2023-05-04T21:23:47.078Z,94700.06
2023-05-04T21:26:13.971Z,94670.34
2023-05-04T21:28:40.899Z,94672.84
2023-05-04T21:31:08.620Z,94707.16
2023-05-04T21:33:36.395Z,94698.41
2023-05-04T21:36:14.337Z,94689.50
2023-05-04T21:38:41.695Z,94690.31
2023-05-04T21:41:16.180Z,94703.69
2023-05-04T21:43:43.804Z,94694.22
2023-05-04T21:46:12.206Z,94706.78
2023-05-04T21:48:39.968Z,94692.72
2023-05-04T21:51:06.907Z,94699.44
2023-05-04T21:53:33.937Z,94703.31
2023-05-04T21:56:08.539Z,94701.69
2023-05-04T21:58:37.460Z,94709.13
2023-05-04T22:01:04.313Z,94692.19
2023-05-04T22:03:31.944Z,94694.81
2023-05-04T22:05:59.131Z,94706.16
2023-05-04T22:08:27.021Z,94712.13
2023-05-04T22:10:56.214Z,94694.19
2023-05-04T22:13:23.419Z,94714.31
2023-05-04T22:15:50.979Z,94715.75
2023-05-04T22:18:18.263Z,94714.13
2023-05-04T22:20:45.582Z,94710.47
2023-05-04T22:23:13.433Z,94723.66
2023-05-04T22:25:40.344Z,94732.03
2023-05-04T22:28:07.351Z,94709.66
2023-05-04T22:30:34.384Z,94731.56
2023-05-04T22:33:01.579Z,94721.63
2023-05-04T22:35:28.458Z,94720.50
2023-05-04T22:37:55.381Z,94726.53
2023-05-04T22:40:22.674Z,94727.59
2023-05-04T22:42:49.609Z,94726.66
2023-05-04T22:45:18.421Z,94723.63
2023-05-04T22:47:47.030Z,94744.66
2023-05-04T22:50:15.027Z,94747.59
2023-05-04T22:52:42.099Z,94735.81
2023-05-04T22:55:09.536Z,94732.34
2023-05-04T22:57:36.920Z,94743.19
2023-05-04T23:00:08.238Z,94713.91
2023-05-04T23:02:36.118Z,94730.34
2023-05-04T23:05:04.135Z,94725.13
2023-05-04T23:07:31.292Z,94734.16
2023-05-04T23:09:58.204Z,94728.41
2023-05-04T23:12:27.137Z,94741.78
2023-05-04T23:14:54.833Z,94733.25
2023-05-04T23:17:22.231Z,94723.91
2023-05-04T23:19:49.168Z,94735.06
2023-05-04T23:22:16.168Z,94731.81
2023-05-04T23:24:43.312Z,94733.66
2023-05-04T23:27:11.431Z,94751.88
2023-05-04T23:29:38.508Z,94744.34
2023-05-04T23:32:06.069Z,94736.50
2023-05-04T23:34:32.984Z,94741.44
2023-05-04T23:36:59.815Z,94733.84
2023-05-04T23:39:26.679Z,94736.16
2023-05-04T23:41:54.316Z,94722.53
2023-05-04T23:44:21.486Z,94741.09
2023-05-04T23:46:48.401Z,94738.31
2023-05-04T23:49:16.573Z,94744.91
2023-05-04T23:51:43.640Z,94740.13
2023-05-04T23:54:10.755Z,94732.88
2023-05-04T23:56:37.797Z,94727.00
2023-05-04T23:59:04.681Z,94728.97
